Time;durP1;ratioP1;P1;durP2;ratioP2;P2;SDS_P1;SDS_P2;PMS_P1;PMS_P2;Temp;Humidity;BMP_temperature;BMP_pressure;BME280_temperature;BME280_humidity;BME280_pressure;Samples;Min_cycle;Max_cycle;Signal;HPM_P1;HPM_P2
2023/07/12 06:13:44;;;;;;;8.40;3.92;;;;;;;;;;5456001;23;20672;-70
2023/07/12 06:16:11;;;;;;;9.68;3.60;;;;;;;;;;4978316;28;20490;-70
2023/07/12 06:18:37;;;;;;;12.75;4.00;;;;;;;;;;4975978;28;20023;-70
2023/07/12 06:21:09;;;;;;;7.97;3.58;;;;;;;;;;4973085;28;20030;-70
2023/07/12 06:23:36;;;;;;;15.25;4.50;;;;;;;;;;4975783;28;20386;-70
2023/07/12 06:26:03;;;;;;;13.38;4.03;;;;;;;;;;4976417;28;20029;-71
2023/07/12 06:28:29;;;;;;;10.23;4.10;;;;;;;;;;4973039;28;20023;-70
2023/07/12 06:30:55;;;;;;;10.07;3.70;;;;;;;;;;4974588;28;20038;-70
2023/07/12 06:33:22;;;;;;;8.48;3.90;;;;;;;;;;4975152;28;20491;-70
2023/07/12 06:35:48;;;;;;;12.00;3.83;;;;;;;;;;4975691;28;20354;-71
2023/07/12 06:38:16;;;;;;;7.53;3.78;;;;;;;;;;4975032;28;20022;-70
2023/07/12 06:40:42;;;;;;;6.90;3.65;;;;;;;;;;4975433;28;20495;-70
2023/07/12 06:43:08;;;;;;;8.95;3.70;;;;;;;;;;4975108;28;20045;-69
2023/07/12 06:45:35;;;;;;;8.90;3.78;;;;;;;;;;4974594;28;20034;-69
2023/07/12 06:48:01;;;;;;;9.95;4.00;;;;;;;;;;4975051;28;20390;-69
2023/07/12 06:50:27;;;;;;;13.15;3.55;;;;;;;;;;4974832;28;20038;-69
2023/07/12 06:52:54;;;;;;;15.10;3.95;;;;;;;;;;4975212;28;20037;-69
2023/07/12 06:55:20;;;;;;;7.93;3.47;;;;;;;;;;4975253;28;20026;-69
2023/07/12 06:57:47;;;;;;;9.15;3.53;;;;;;;;;;4975207;28;20026;-69
2023/07/12 07:00:13;;;;;;;19.65;4.30;;;;;;;;;;4974223;28;20029;-69
2023/07/12 07:02:40;;;;;;;8.75;3.70;;;;;;;;;;4975067;28;20027;-68
2023/07/12 07:05:06;;;;;;;8.13;3.78;;;;;;;;;;4974785;28;20511;-68
2023/07/12 07:07:32;;;;;;;15.20;3.70;;;;;;;;;;4955812;29;20483;-69
2023/07/12 07:09:59;;;;;;;6.32;3.55;;;;;;;;;;4965960;28;20045;-69
2023/07/12 07:12:25;;;;;;;7.32;3.90;;;;;;;;;;4974670;28;20037;-70
2023/07/12 07:14:52;;;;;;;8.30;3.63;;;;;;;;;;4974389;28;20652;-68
2023/07/12 07:17:18;;;;;;;9.98;4.10;;;;;;;;;;4975189;28;20030;-68
2023/07/12 07:19:45;;;;;;;8.10;3.53;;;;;;;;;;4974704;28;20029;-68
2023/07/12 07:22:11;;;;;;;12.63;3.30;;;;;;;;;;4974710;28;20049;-69
2023/07/12 07:24:37;;;;;;;7.25;3.45;;;;;;;;;;4974972;28;20027;-69
2023/07/12 07:27:04;;;;;;;8.95;3.88;;;;;;;;;;4972839;28;20057;-69
2023/07/12 07:29:30;;;;;;;14.98;3.70;;;;;;;;;;4973849;28;20042;-69
2023/07/12 07:31:56;;;;;;;9.75;3.25;;;;;;;;;;4973785;28;20039;-69
2023/07/12 07:34:22;;;;;;;9.85;3.45;;;;;;;;;;4983838;28;20026;-69
2023/07/12 07:36:49;;;;;;;11.65;3.58;;;;;;;;;;4975829;28;20030;-68
2023/07/12 07:39:15;;;;;;;11.38;3.55;;;;;;;;;;4973250;28;20507;-68
2023/07/12 07:41:41;;;;;;;12.77;3.90;;;;;;;;;;4974269;28;20027;-68
2023/07/12 07:44:08;;;;;;;8.73;3.35;;;;;;;;;;4973928;28;20028;-69
2023/07/12 07:46:34;;;;;;;7.35;3.03;;;;;;;;;;4973569;28;20019;-69
2023/07/12 07:49:00;;;;;;;13.75;3.58;;;;;;;;;;4973973;28;20030;-69
2023/07/12 07:51:27;;;;;;;8.48;3.40;;;;;;;;;;4973764;28;20041;-69
2023/07/12 07:53:53;;;;;;;7.72;3.85;;;;;;;;;;4973702;28;20503;-69
2023/07/12 07:56:20;;;;;;;6.75;3.00;;;;;;;;;;4973226;28;20023;-68
2023/07/12 07:58:46;;;;;;;9.57;3.42;;;;;;;;;;4973107;28;20027;-68
2023/07/12 08:01:12;;;;;;;10.18;3.20;;;;;;;;;;4973443;28;20521;-68
2023/07/12 08:03:39;;;;;;;6.20;3.25;;;;;;;;;;4973859;28;20034;-72
2023/07/12 08:06:06;;;;;;;9.60;3.50;;;;;;;;;;4973804;28;20394;-68
2023/07/12 08:08:34;;;;;;;7.03;3.40;;;;;;;;;;4972462;28;20031;-68
2023/07/12 08:11:01;;;;;;;8.50;2.97;;;;;;;;;;4972640;28;20031;-69
2023/07/12 08:13:27;;;;;;;8.00;3.30;;;;;;;;;;4973273;28;20100;-70
2023/07/12 08:15:57;;;;;;;6.70;3.15;;;;;;;;;;4973670;28;20031;-68
2023/07/12 08:18:23;;;;;;;7.80;3.28;;;;;;;;;;4973434;28;20035;-68
2023/07/12 08:20:52;;;;;;;9.45;3.40;;;;;;;;;;4971864;28;20018;-68
2023/07/12 08:23:19;;;;;;;8.40;2.90;;;;;;;;;;4973408;28;20476;-69
2023/07/12 08:25:45;;;;;;;7.95;3.38;;;;;;;;;;4972855;28;20015;-69
2023/07/12 08:28:11;;;;;;;9.75;3.60;;;;;;;;;;4973582;28;20422;-69
2023/07/12 08:30:38;;;;;;;9.63;3.50;;;;;;;;;;4972687;28;20097;-69
2023/07/12 08:33:04;;;;;;;6.68;3.60;;;;;;;;;;4973033;28;20039;-67
2023/07/12 08:35:30;;;;;;;9.07;3.42;;;;;;;;;;4972977;28;20030;-69
2023/07/12 08:37:57;;;;;;;10.88;3.13;;;;;;;;;;4973039;28;20018;-68
2023/07/12 08:40:24;;;;;;;9.80;3.80;;;;;;;;;;4972526;28;20513;-68
2023/07/12 08:42:50;;;;;;;11.65;3.67;;;;;;;;;;4973021;28;20039;-69
2023/07/12 08:45:32;;;;;;;9.35;3.53;;;;;;;;;;4971227;28;20034;-69
2023/07/12 08:48:00;;;;;;;7.63;3.30;;;;;;;;;;4972835;28;20027;-69
2023/07/12 08:50:32;;;;;;;9.25;3.90;;;;;;;;;;4972815;28;20419;-68
2023/07/12 08:52:58;;;;;;;9.10;3.97;;;;;;;;;;4971615;28;20027;-69
2023/07/12 08:55:25;;;;;;;7.20;4.05;;;;;;;;;;4972738;28;20513;-69
2023/07/12 08:57:58;;;;;;;10.30;3.47;;;;;;;;;;4972641;28;20515;-69
2023/07/12 09:00:30;;;;;;;10.82;4.05;;;;;;;;;;4973103;28;20043;-69
2023/07/12 09:02:56;;;;;;;10.13;3.25;;;;;;;;;;4972729;28;20023;-68
2023/07/12 09:05:24;;;;;;;12.60;3.33;;;;;;;;;;4973214;28;20086;-69
2023/07/12 09:08:08;;;;;;;19.67;4.20;;;;;;;;;;4971770;28;20049;-69
2023/07/12 09:10:41;;;;;;;12.15;4.13;;;;;;;;;;4972671;28;20063;-69
2023/07/12 09:13:10;;;;;;;7.90;3.83;;;;;;;;;;4971998;28;20533;-69
2023/07/12 09:15:43;;;;;;;11.90;3.70;;;;;;;;;;4972605;28;20426;-68
2023/07/12 09:18:20;;;;;;;11.30;4.00;;;;;;;;;;4971374;28;20077;-69
2023/07/12 09:20:49;;;;;;;8.02;3.70;;;;;;;;;;4971077;28;20035;-69
2023/07/12 09:23:15;;;;;;;8.88;3.70;;;;;;;;;;4972593;28;20406;-68
2023/07/12 09:25:47;;;;;;;13.52;4.00;;;;;;;;;;4971531;28;20049;-68
2023/07/12 09:28:14;;;;;;;10.82;3.60;;;;;;;;;;4965745;28;20384;-68
2023/07/12 09:30:41;;;;;;;7.40;4.13;;;;;;;;;;4965325;28;20034;-69
2023/07/12 09:33:15;;;;;;;13.70;4.00;;;;;;;;;;4966290;28;20039;-68
2023/07/12 09:35:45;;;;;;;10.82;3.70;;;;;;;;;;4966193;28;20023;-68
2023/07/12 09:38:13;;;;;;;8.07;3.17;;;;;;;;;;4978821;28;20042;-68
2023/07/12 09:40:40;;;;;;;14.38;4.28;;;;;;;;;;4971341;28;20450;-69
2023/07/12 09:43:14;;;;;;;10.10;4.03;;;;;;;;;;4969489;28;20499;-69
2023/07/12 09:45:42;;;;;;;7.80;3.80;;;;;;;;;;4966421;28;20041;-69
2023/07/12 09:48:34;;;;;;;8.30;3.72;;;;;;;;;;4965877;28;20030;-68
2023/07/12 09:51:06;;;;;;;9.40;3.53;;;;;;;;;;4963242;28;20414;-68
2023/07/12 09:53:37;;;;;;;8.63;3.65;;;;;;;;;;4980173;28;20034;-68
2023/07/12 09:56:11;;;;;;;4.97;3.13;;;;;;;;;;4966250;28;20063;-68
2023/07/12 09:58:44;;;;;;;7.28;3.63;;;;;;;;;;4966357;28;20041;-68
2023/07/12 10:01:30;;;;;;;11.52;3.80;;;;;;;;;;4966458;28;20035;-70
2023/07/12 10:04:00;;;;;;;12.75;3.80;;;;;;;;;;4974565;28;20410;-72
2023/07/12 10:06:27;;;;;;;15.77;3.70;;;;;;;;;;4975957;28;20034;-71
2023/07/12 10:09:07;;;;;;;8.18;3.05;;;;;;;;;;4975674;28;20025;-70
2023/07/12 10:11:44;;;;;;;10.18;3.40;;;;;;;;;;4975806;28;20045;-71
2023/07/12 10:14:11;;;;;;;7.07;3.42;;;;;;;;;;4975957;28;20069;-71
2023/07/12 10:16:46;;;;;;;9.38;3.50;;;;;;;;;;4976229;28;20495;-71
2023/07/12 10:19:15;;;;;;;8.23;3.70;;;;;;;;;;4975971;28;20411;-71
2023/07/12 10:21:42;;;;;;;7.60;3.30;;;;;;;;;;4975473;28;20053;-71
2023/07/12 10:24:13;;;;;;;8.40;3.03;;;;;;;;;;4975933;28;20022;-71
2023/07/12 10:26:40;;;;;;;5.72;3.90;;;;;;;;;;4974744;28;20053;-71
2023/07/12 10:29:11;;;;;;;11.32;3.17;;;;;;;;;;4974705;28;20037;-71
2023/07/12 10:31:50;;;;;;;7.25;2.95;;;;;;;;;;4976028;28;20038;-71
2023/07/12 10:34:16;;;;;;;7.32;3.30;;;;;;;;;;4976010;28;20395;-71
2023/07/12 10:36:44;;;;;;;7.10;2.95;;;;;;;;;;4976239;28;20022;-71
2023/07/12 10:39:10;;;;;;;8.10;3.08;;;;;;;;;;4984030;28;20030;-71
2023/07/12 10:41:46;;;;;;;6.82;3.33;;;;;;;;;;4995164;28;20027;-71
2023/07/12 10:44:23;;;;;;;7.80;3.50;;;;;;;;;;4994990;28;20034;-71
2023/07/12 10:46:52;;;;;;;5.57;3.15;;;;;;;;;;4993889;28;20442;-71
2023/07/12 10:49:37;;;;;;;8.45;3.05;;;;;;;;;;4994853;28;20022;-70
2023/07/12 10:52:15;;;;;;;7.32;3.20;;;;;;;;;;4976667;28;20033;-72
2023/07/12 10:55:08;;;;;;;8.48;3.15;;;;;;;;;;4975773;28;20015;-71
2023/07/12 10:57:39;;;;;;;7.07;2.90;;;;;;;;;;4915653;29;20040;-72
2023/07/12 11:00:06;;;;;;;4.78;2.65;;;;;;;;;;4915783;29;20147;-72
2023/07/12 11:02:40;;;;;;;4.65;2.63;;;;;;;;;;4915523;29;20058;-71
2023/07/12 11:05:26;;;;;;;5.97;2.97;;;;;;;;;;4915284;29;20401;-71
2023/07/12 11:07:54;;;;;;;8.48;3.28;;;;;;;;;;4915525;29;20058;-72
2023/07/12 11:10:24;;;;;;;7.65;3.45;;;;;;;;;;4915309;29;20122;-72
2023/07/12 11:12:53;;;;;;;4.22;2.60;;;;;;;;;;4914428;29;20202;-72
2023/07/12 11:15:25;;;;;;;12.00;3.22;;;;;;;;;;4914632;29;20048;-72
2023/07/12 11:18:04;;;;;;;5.57;3.03;;;;;;;;;;4915535;29;20066;-72
2023/07/12 11:20:34;;;;;;;5.47;2.88;;;;;;;;;;4899235;29;20544;-71
2023/07/12 11:23:00;;;;;;;7.63;3.05;;;;;;;;;;4915273;29;20472;-71
2023/07/12 11:25:31;;;;;;;8.95;3.40;;;;;;;;;;4915183;29;20042;-72
2023/07/12 11:28:01;;;;;;;10.93;3.50;;;;;;;;;;4915020;29;20499;-71
2023/07/12 11:30:28;;;;;;;7.82;3.67;;;;;;;;;;4915007;29;20055;-72
2023/07/12 11:33:00;;;;;;;9.38;3.65;;;;;;;;;;4915052;29;20410;-72
2023/07/12 11:35:45;;;;;;;8.52;3.60;;;;;;;;;;4971469;28;20499;-72
2023/07/12 11:38:13;;;;;;;10.18;3.78;;;;;;;;;;4974771;28;20042;-72
2023/07/12 11:40:40;;;;;;;8.88;3.70;;;;;;;;;;4974539;28;20398;-72
2023/07/12 11:43:39;;;;;;;9.68;3.95;;;;;;;;;;4974426;28;20027;-71
2023/07/12 11:46:25;;;;;;;9.50;3.38;;;;;;;;;;4915197;29;20091;-72
2023/07/12 11:48:57;;;;;;;6.53;3.72;;;;;;;;;;4914389;29;20050;-72
2023/07/12 11:51:44;;;;;;;7.80;3.65;;;;;;;;;;4914942;29;20044;-72
2023/07/12 11:54:21;;;;;;;9.68;3.65;;;;;;;;;;4914680;29;20028;-72
2023/07/12 11:56:48;;;;;;;8.38;3.85;;;;;;;;;;4914617;29;20038;-72
2023/07/12 11:59:15;;;;;;;7.75;3.80;;;;;;;;;;4914647;29;20374;-72
2023/07/12 12:01:52;;;;;;;7.03;3.78;;;;;;;;;;4914490;29;20040;-72
2023/07/12 12:04:20;;;;;;;6.43;3.97;;;;;;;;;;4913994;29;20028;-72
2023/07/12 12:06:47;;;;;;;5.30;3.50;;;;;;;;;;4914506;29;20040;-71
2023/07/12 12:09:13;;;;;;;5.13;3.33;;;;;;;;;;4914420;29;20079;-72
2023/07/12 12:11:40;;;;;;;6.82;3.75;;;;;;;;;;4914328;29;20054;-72
2023/07/12 12:14:16;;;;;;;9.02;4.00;;;;;;;;;;4914378;29;20059;-72
2023/07/12 12:16:48;;;;;;;8.23;3.70;;;;;;;;;;4898678;29;20032;-72
2023/07/12 12:19:16;;;;;;;11.60;3.65;;;;;;;;;;4914322;29;20062;-72
2023/07/12 12:21:50;;;;;;;6.47;3.58;;;;;;;;;;4945434;28;20510;-72
2023/07/12 12:24:18;;;;;;;7.78;3.40;;;;;;;;;;4973932;28;20027;-72
2023/07/12 12:26:45;;;;;;;7.18;3.65;;;;;;;;;;4972598;28;20041;-72
2023/07/12 12:29:14;;;;;;;8.32;3.60;;;;;;;;;;4973536;28;20487;-72
2023/07/12 12:31:49;;;;;;;10.95;4.03;;;;;;;;;;4973490;28;20039;-72
2023/07/12 12:34:17;;;;;;;5.05;3.50;;;;;;;;;;4973266;28;20081;-71
2023/07/12 12:37:00;;;;;;;7.47;3.72;;;;;;;;;;4973668;28;20033;-72
2023/07/12 12:39:26;;;;;;;8.35;3.58;;;;;;;;;;4973480;28;20507;-72
2023/07/12 12:41:54;;;;;;;9.25;4.10;;;;;;;;;;4973670;28;20031;-71
2023/07/12 12:44:21;;;;;;;6.85;3.78;;;;;;;;;;4973815;28;20027;-71
2023/07/12 12:46:52;;;;;;;5.88;3.50;;;;;;;;;;4973192;28;20510;-70
2023/07/12 12:49:18;;;;;;;;;;;;;;;;;;4974110;28;20031;-70
2023/07/12 12:51:44;;;;;;;10.30;4.53;;;;;;;;;;4973151;28;19921;-70
2023/07/12 12:54:11;;;;;;;8.38;4.55;;;;;;;;;;4973785;28;20034;-70
2023/07/12 12:56:37;;;;;;;10.00;4.55;;;;;;;;;;4973753;28;20029;-70
2023/07/12 12:59:03;;;;;;;12.63;4.80;;;;;;;;;;4973708;28;20022;-70
2023/07/12 13:01:30;;;;;;;7.55;4.35;;;;;;;;;;4973496;28;20041;-70
2023/07/12 13:03:56;;;;;;;8.50;4.75;;;;;;;;;;4971136;28;20505;-70
2023/07/12 13:06:24;;;;;;;9.65;4.60;;;;;;;;;;4972787;28;20085;-70
2023/07/12 13:08:50;;;;;;;9.20;4.80;;;;;;;;;;4973389;28;20018;-70
2023/07/12 13:11:17;;;;;;;10.27;4.60;;;;;;;;;;4973115;28;20035;-70
2023/07/12 13:13:43;;;;;;;8.23;4.00;;;;;;;;;;4987857;28;20046;-70
2023/07/12 13:16:21;;;;;;;9.80;4.45;;;;;;;;;;4972973;28;20041;-70
2023/07/12 13:18:47;;;;;;;7.65;4.43;;;;;;;;;;4973150;28;20019;-70
2023/07/12 13:21:22;;;;;;;9.50;4.47;;;;;;;;;;4973120;28;20023;-69
2023/07/12 13:23:48;;;;;;;11.60;5.07;;;;;;;;;;4973054;28;20031;-70
2023/07/12 13:26:16;;;;;;;8.20;4.60;;;;;;;;;;4972960;28;20027;-70
2023/07/12 13:28:43;;;;;;;9.00;4.88;;;;;;;;;;4973436;28;20066;-70
2023/07/12 13:31:10;;;;;;;10.57;4.75;;;;;;;;;;4972265;28;20031;-70
2023/07/12 13:33:37;;;;;;;6.82;4.57;;;;;;;;;;4972737;28;20022;-70
2023/07/12 13:36:03;;;;;;;9.52;4.25;;;;;;;;;;4972870;28;20031;-70
2023/07/12 13:38:30;;;;;;;8.95;4.95;;;;;;;;;;4975430;28;20502;-70
2023/07/12 13:40:56;;;;;;;6.13;4.50;;;;;;;;;;4976629;28;20033;-70
2023/07/12 13:43:22;;;;;;;11.43;5.00;;;;;;;;;;4976909;28;20033;-70
2023/07/12 13:45:50;;;;;;;7.72;4.50;;;;;;;;;;4991354;28;20041;-70
2023/07/12 13:48:17;;;;;;;7.53;4.70;;;;;;;;;;4976638;28;20511;-70
2023/07/12 13:50:43;;;;;;;10.57;4.75;;;;;;;;;;4976624;28;20034;-70
2023/07/12 13:53:10;;;;;;;9.18;4.57;;;;;;;;;;4975815;28;20030;-70
2023/07/12 13:55:37;;;;;;;8.52;4.57;;;;;;;;;;4976580;28;20023;-70
2023/07/12 13:58:04;;;;;;;9.32;4.78;;;;;;;;;;4976673;28;20030;-70
2023/07/12 14:00:30;;;;;;;7.30;4.32;;;;;;;;;;4976190;28;20034;-70
2023/07/12 14:02:59;;;;;;;7.13;4.75;;;;;;;;;;4976273;28;20493;-70
2023/07/12 14:05:25;;;;;;;7.40;4.50;;;;;;;;;;4990902;28;20599;-70
2023/07/12 14:07:52;;;;;;;8.45;4.60;;;;;;;;;;4975794;28;20048;-70
2023/07/12 14:10:20;;;;;;;6.93;4.63;;;;;;;;;;4975970;28;20435;-70
2023/07/12 14:12:47;;;;;;;10.25;4.88;;;;;;;;;;4975429;28;20491;-70
2023/07/12 14:15:18;;;;;;;13.18;4.60;;;;;;;;;;4975517;28;20569;-70
2023/07/12 14:17:44;;;;;;;9.13;4.63;;;;;;;;;;4990706;28;20022;-70
2023/07/12 14:20:11;;;;;;;8.13;4.78;;;;;;;;;;4983917;28;20048;-70
2023/07/12 14:22:37;;;;;;;9.82;4.90;;;;;;;;;;4995752;28;20038;-70
2023/07/12 14:25:03;;;;;;;6.60;4.28;;;;;;;;;;4995594;28;20030;-70
2023/07/12 14:27:34;;;;;;;7.40;4.85;;;;;;;;;;4996004;28;20031;-69
2023/07/12 14:30:01;;;;;;;7.88;4.75;;;;;;;;;;4995751;28;20030;-69
2023/07/12 14:32:30;;;;;;;8.05;5.30;;;;;;;;;;4995615;28;20038;-69
2023/07/12 14:34:58;;;;;;;7.55;4.88;;;;;;;;;;4995995;28;20026;-69
2023/07/12 14:37:24;;;;;;;8.82;4.60;;;;;;;;;;4995848;28;20022;-69
2023/07/12 14:39:51;;;;;;;7.38;4.65;;;;;;;;;;4995746;28;20402;-69
2023/07/12 14:42:19;;;;;;;7.18;4.43;;;;;;;;;;4995860;28;20018;-70
2023/07/12 14:44:45;;;;;;;8.68;4.90;;;;;;;;;;4995827;28;20026;-70
2023/07/12 14:47:12;;;;;;;7.65;4.63;;;;;;;;;;4995583;28;20020;-70
2023/07/12 14:49:40;;;;;;;7.10;4.57;;;;;;;;;;4994152;28;20073;-69
2023/07/12 14:52:23;;;;;;;5.75;4.75;;;;;;;;;;4995446;28;20545;-70
2023/07/12 14:54:50;;;;;;;7.63;5.03;;;;;;;;;;4995677;28;20038;-70
2023/07/12 14:57:17;;;;;;;7.38;4.55;;;;;;;;;;4995431;28;20030;-70
2023/07/12 14:59:44;;;;;;;6.38;4.30;;;;;;;;;;4995441;28;20038;-70
2023/07/12 15:02:16;;;;;;;7.28;4.70;;;;;;;;;;4995540;28;20026;-70
2023/07/12 15:04:42;;;;;;;7.88;4.53;;;;;;;;;;4995640;28;20026;-71
2023/07/12 15:07:16;;;;;;;6.15;4.35;;;;;;;;;;4995425;28;20419;-70
2023/07/12 15:09:42;;;;;;;5.65;4.53;;;;;;;;;;4995173;28;20037;-70
2023/07/12 15:12:18;;;;;;;7.97;4.35;;;;;;;;;;4994660;28;20033;-70
2023/07/12 15:14:44;;;;;;;6.55;4.45;;;;;;;;;;4994907;28;20044;-70
2023/07/12 15:17:11;;;;;;;8.27;4.65;;;;;;;;;;4983327;28;20034;-70
2023/07/12 15:19:37;;;;;;;7.43;4.05;;;;;;;;;;4975464;28;20442;-70
2023/07/12 15:22:03;;;;;;;6.47;4.40;;;;;;;;;;4975380;28;20015;-70
2023/07/12 15:24:30;;;;;;;7.13;4.30;;;;;;;;;;4975778;28;20073;-70
2023/07/12 15:26:56;;;;;;;6.43;3.97;;;;;;;;;;4975221;28;20390;-70
2023/07/12 15:29:23;;;;;;;6.07;4.50;;;;;;;;;;4975722;28;20029;-70
2023/07/12 15:31:49;;;;;;;8.57;4.47;;;;;;;;;;4975001;28;20035;-70
2023/07/12 15:34:15;;;;;;;5.43;4.07;;;;;;;;;;4975398;28;20501;-71
2023/07/12 15:36:41;;;;;;;6.45;4.03;;;;;;;;;;4975413;28;20042;-70
2023/07/12 15:39:08;;;;;;;5.28;3.80;;;;;;;;;;4975300;28;20442;-70
2023/07/12 15:41:35;;;;;;;6.38;4.10;;;;;;;;;;4989697;28;20084;-70
2023/07/12 15:44:04;;;;;;;6.63;3.80;;;;;;;;;;4975081;28;20031;-70
2023/07/12 15:46:31;;;;;;;6.22;4.10;;;;;;;;;;4975094;28;20410;-70
2023/07/12 15:48:58;;;;;;;6.65;4.15;;;;;;;;;;4975011;28;20019;-70
2023/07/12 15:51:38;;;;;;;6.95;4.22;;;;;;;;;;4975007;28;20038;-70
2023/07/12 15:54:15;;;;;;;7.50;3.88;;;;;;;;;;4975062;28;20491;-70
2023/07/12 15:56:43;;;;;;;4.78;3.80;;;;;;;;;;4974906;28;20026;-70
2023/07/12 15:59:15;;;;;;;8.07;4.28;;;;;;;;;;4975190;28;20026;-70
2023/07/12 16:01:41;;;;;;;7.30;3.53;;;;;;;;;;4974580;28;20031;-70
2023/07/12 16:04:09;;;;;;;4.88;3.28;;;;;;;;;;4974636;28;20039;-70
2023/07/12 16:06:35;;;;;;;7.05;3.70;;;;;;;;;;4974965;28;20033;-70
2023/07/12 16:09:01;;;;;;;5.18;3.40;;;;;;;;;;4974763;28;20023;-70
2023/07/12 16:11:32;;;;;;;5.78;4.03;;;;;;;;;;4974338;28;20042;-70
2023/07/12 16:13:59;;;;;;;5.15;3.67;;;;;;;;;;4973312;28;20480;-70
2023/07/12 16:16:26;;;;;;;5.75;3.53;;;;;;;;;;4974706;28;20061;-70
2023/07/12 16:18:52;;;;;;;4.82;3.22;;;;;;;;;;4974446;28;20031;-70
2023/07/12 16:21:20;;;;;;;5.30;3.42;;;;;;;;;;4974621;28;20027;-71
2023/07/12 16:23:48;;;;;;;5.22;3.72;;;;;;;;;;4974365;28;20030;-70
2023/07/12 16:26:20;;;;;;;7.07;4.30;;;;;;;;;;4974020;28;20027;-70
2023/07/12 16:28:47;;;;;;;4.20;2.92;;;;;;;;;;4974356;28;20018;-71
2023/07/12 16:31:32;;;;;;;5.45;3.40;;;;;;;;;;4974139;28;20026;-70
2023/07/12 16:33:59;;;;;;;5.07;2.92;;;;;;;;;;4974230;28;20026;-70
2023/07/12 16:36:26;;;;;;;7.65;3.88;;;;;;;;;;4974230;28;20027;-70
2023/07/12 16:38:52;;;;;;;4.57;3.30;;;;;;;;;;4973916;28;20018;-70
2023/07/12 16:41:21;;;;;;;6.13;3.38;;;;;;;;;;4974430;28;20026;-69
2023/07/12 16:43:48;;;;;;;4.35;3.40;;;;;;;;;;4974443;28;20029;-70
2023/07/12 16:46:14;;;;;;;3.75;2.67;;;;;;;;;;4974039;28;20487;-70
2023/07/12 16:48:41;;;;;;;4.75;3.40;;;;;;;;;;4974099;28;20025;-70
2023/07/12 16:51:16;;;;;;;5.50;3.30;;;;;;;;;;4973895;28;20395;-70
2023/07/12 16:53:42;;;;;;;3.97;3.22;;;;;;;;;;4973457;28;20023;-70
2023/07/12 16:56:15;;;;;;;6.78;3.50;;;;;;;;;;4974034;28;20496;-70
2023/07/12 16:58:41;;;;;;;4.82;3.38;;;;;;;;;;4973986;28;20377;-70
2023/07/12 17:01:11;;;;;;;3.58;3.20;;;;;;;;;;4974038;28;20077;-70
2023/07/12 17:03:40;;;;;;;3.67;3.00;;;;;;;;;;4973775;28;20479;-70
2023/07/12 17:06:06;;;;;;;4.78;2.70;;;;;;;;;;4973749;28;20030;-70
2023/07/12 17:08:33;;;;;;;3.63;2.97;;;;;;;;;;4973584;28;20025;-70
2023/07/12 17:10:59;;;;;;;3.70;2.85;;;;;;;;;;4973575;28;20037;-70
2023/07/12 17:13:26;;;;;;;3.88;2.80;;;;;;;;;;4972857;28;20499;-70
2023/07/12 17:15:53;;;;;;;5.45;3.22;;;;;;;;;;4972968;28;20027;-70
2023/07/12 17:18:20;;;;;;;5.75;3.00;;;;;;;;;;4973669;28;20035;-70
2023/07/12 17:20:47;;;;;;;3.83;2.80;;;;;;;;;;4973735;28;20034;-70
2023/07/12 17:23:15;;;;;;;3.63;2.60;;;;;;;;;;4988263;28;20039;-69
2023/07/12 17:25:42;;;;;;;4.78;2.67;;;;;;;;;;4973801;28;20039;-70
2023/07/12 17:28:13;;;;;;;4.50;3.03;;;;;;;;;;4973750;28;20027;-70
2023/07/12 17:30:40;;;;;;;3.20;2.80;;;;;;;;;;4973883;28;20034;-70
2023/07/12 17:33:09;;;;;;;4.55;3.38;;;;;;;;;;4973581;28;20406;-70
2023/07/12 17:35:35;;;;;;;3.83;2.70;;;;;;;;;;4973651;28;20077;-70
2023/07/12 17:38:02;;;;;;;3.55;2.80;;;;;;;;;;4973493;28;20030;-70
2023/07/12 17:40:29;;;;;;;3.50;2.92;;;;;;;;;;4973380;28;20029;-70
2023/07/12 17:42:56;;;;;;;5.07;2.75;;;;;;;;;;4973536;28;20369;-70
2023/07/12 17:45:22;;;;;;;4.20;2.72;;;;;;;;;;4973460;28;20031;-70
2023/07/12 17:47:49;;;;;;;5.70;2.92;;;;;;;;;;4973485;28;20027;-70
2023/07/12 17:50:15;;;;;;;2.63;2.40;;;;;;;;;;4973728;28;20026;-70
2023/07/12 17:52:41;;;;;;;3.22;2.80;;;;;;;;;;4972963;28;20399;-70
2023/07/12 17:55:13;;;;;;;4.85;2.40;;;;;;;;;;4973781;28;20023;-70
2023/07/12 17:57:39;;;;;;;4.40;2.40;;;;;;;;;;4973359;28;20037;-70
2023/07/12 18:00:09;;;;;;;3.03;2.45;;;;;;;;;;4973431;28;20391;-70
2023/07/12 18:02:35;;;;;;;3.80;2.73;;;;;;;;;;4973672;28;20023;-70
2023/07/12 18:05:02;;;;;;;3.42;2.40;;;;;;;;;;4973194;28;20247;-70
2023/07/12 18:07:30;;;;;;;4.28;2.47;;;;;;;;;;4973084;28;20022;-71
2023/07/12 18:09:56;;;;;;;3.95;2.70;;;;;;;;;;4973075;28;20383;-70
2023/07/12 18:12:23;;;;;;;4.53;2.50;;;;;;;;;;4973047;28;20039;-70
2023/07/12 18:14:50;;;;;;;3.60;2.40;;;;;;;;;;4972987;28;20050;-70
2023/07/12 18:17:18;;;;;;;4.30;2.42;;;;;;;;;;4973509;28;20041;-70
2023/07/12 18:19:46;;;;;;;3.03;2.65;;;;;;;;;;4973260;28;20403;-70
2023/07/12 18:22:13;;;;;;;2.83;2.25;;;;;;;;;;4972852;28;20468;-70
2023/07/12 18:24:39;;;;;;;3.55;2.60;;;;;;;;;;4975659;28;20025;-70
2023/07/12 18:27:19;;;;;;;3.33;2.38;;;;;;;;;;4976934;28;20037;-70
2023/07/12 18:29:46;;;;;;;3.63;2.42;;;;;;;;;;4976591;28;20513;-70
2023/07/12 18:32:14;;;;;;;3.97;2.40;;;;;;;;;;4976545;28;20035;-70
2023/07/12 18:34:41;;;;;;;2.78;2.42;;;;;;;;;;4976310;28;20025;-70
2023/07/12 18:37:15;;;;;;;3.65;2.25;;;;;;;;;;4976434;28;20403;-70
2023/07/12 18:40:08;;;;;;;5.80;2.20;;;;;;;;;;4976315;28;20483;-69
2023/07/12 18:42:40;;;;;;;3.95;2.28;;;;;;;;;;4973780;28;20126;-70
2023/07/12 18:45:20;;;;;;;3.55;2.55;;;;;;;;;;4976438;28;20035;-70
2023/07/12 18:47:48;;;;;;;4.03;2.60;;;;;;;;;;4976139;28;20101;-70
2023/07/12 18:50:14;;;;;;;2.92;2.20;;;;;;;;;;4976058;28;20033;-70
2023/07/12 18:52:41;;;;;;;2.67;2.20;;;;;;;;;;4976105;28;20031;-71
2023/07/12 18:55:10;;;;;;;3.25;2.35;;;;;;;;;;4975941;28;20027;-70
2023/07/12 18:57:36;;;;;;;3.28;1.90;;;;;;;;;;4976011;28;20026;-70
2023/07/12 19:00:04;;;;;;;3.05;2.10;;;;;;;;;;4975903;28;20031;-70
2023/07/12 19:02:30;;;;;;;4.88;2.22;;;;;;;;;;4975968;28;20019;-70
2023/07/12 19:04:56;;;;;;;2.95;2.08;;;;;;;;;;4975615;28;20426;-70
2023/07/12 19:07:23;;;;;;;3.80;1.80;;;;;;;;;;4975981;28;20035;-70
2023/07/12 19:09:50;;;;;;;2.13;1.88;;;;;;;;;;4975582;28;20034;-70
2023/07/12 19:12:17;;;;;;;3.13;2.10;;;;;;;;;;4975657;28;20034;-70
2023/07/12 19:14:46;;;;;;;2.88;2.17;;;;;;;;;;4975649;28;20418;-70
2023/07/12 19:17:16;;;;;;;2.50;2.30;;;;;;;;;;4975964;28;20081;-70
2023/07/12 19:19:43;;;;;;;3.33;2.20;;;;;;;;;;4975453;28;20033;-70
2023/07/12 19:22:14;;;;;;;2.70;2.03;;;;;;;;;;4975498;28;20380;-70
2023/07/12 19:24:40;;;;;;;2.85;2.33;;;;;;;;;;4975550;28;20029;-70
2023/07/12 19:27:11;;;;;;;2.35;2.03;;;;;;;;;;4975690;28;20023;-70
2023/07/12 19:29:37;;;;;;;2.25;2.05;;;;;;;;;;4975324;28;20095;-70
2023/07/12 19:32:09;;;;;;;2.40;2.13;;;;;;;;;;4975315;28;20043;-70
2023/07/12 19:34:36;;;;;;;2.42;2.05;;;;;;;;;;4974967;28;20030;-69
2023/07/12 19:37:02;;;;;;;2.75;2.20;;;;;;;;;;4975144;28;20030;-70
2023/07/12 19:39:28;;;;;;;2.30;1.80;;;;;;;;;;4975253;28;20025;-70
2023/07/12 19:41:55;;;;;;;3.10;2.05;;;;;;;;;;4975220;28;20031;-70
2023/07/12 19:44:21;;;;;;;2.53;2.00;;;;;;;;;;4975239;28;20102;-70
2023/07/12 19:46:49;;;;;;;3.50;1.90;;;;;;;;;;4975098;28;20041;-70
2023/07/12 19:49:15;;;;;;;2.17;1.70;;;;;;;;;;4974894;28;20027;-69
2023/07/12 19:51:43;;;;;;;3.15;2.00;;;;;;;;;;4974845;28;20495;-70
2023/07/12 19:54:17;;;;;;;3.03;2.08;;;;;;;;;;4975176;28;20082;-70
2023/07/12 19:56:43;;;;;;;3.20;2.13;;;;;;;;;;4975191;28;20470;-70
2023/07/12 19:59:09;;;;;;;2.92;1.70;;;;;;;;;;4974612;28;20035;-70
2023/07/12 20:01:36;;;;;;;3.03;2.00;;;;;;;;;;4974783;28;20035;-70
2023/07/12 20:04:06;;;;;;;4.18;2.25;;;;;;;;;;4974882;28;20404;-70
2023/07/12 20:06:34;;;;;;;2.17;1.77;;;;;;;;;;4974910;28;20381;-69
2023/07/12 20:09:01;;;;;;;2.10;1.77;;;;;;;;;;4974870;28;20081;-70
2023/07/12 20:11:28;;;;;;;2.05;1.80;;;;;;;;;;4974460;28;20049;-70
2023/07/12 20:13:55;;;;;;;2.10;1.70;;;;;;;;;;4974482;28;20050;-70
2023/07/12 20:16:23;;;;;;;2.63;2.00;;;;;;;;;;4974408;28;20049;-70
2023/07/12 20:18:49;;;;;;;2.50;1.83;;;;;;;;;;4974443;28;20019;-70
2023/07/12 20:21:16;;;;;;;2.72;2.05;;;;;;;;;;4974416;28;20383;-70
2023/07/12 20:23:42;;;;;;;3.00;1.90;;;;;;;;;;4974565;28;20025;-70
2023/07/12 20:26:09;;;;;;;2.53;2.10;;;;;;;;;;4974534;28;20022;-70
2023/07/12 20:28:39;;;;;;;2.63;2.08;;;;;;;;;;4974749;28;20033;-70
2023/07/12 20:31:09;;;;;;;3.05;1.90;;;;;;;;;;4973943;28;20034;-70
2023/07/12 20:33:37;;;;;;;2.60;1.92;;;;;;;;;;4974081;28;20038;-70
2023/07/12 20:36:03;;;;;;;2.17;1.50;;;;;;;;;;4974292;28;20027;-70
2023/07/12 20:38:30;;;;;;;3.30;1.92;;;;;;;;;;4974470;28;20045;-70
2023/07/12 20:40:57;;;;;;;2.55;1.98;;;;;;;;;;4974365;28;20100;-70
2023/07/12 20:43:29;;;;;;;2.05;1.60;;;;;;;;;;4974364;28;20019;-70
2023/07/12 20:45:58;;;;;;;1.85;1.50;;;;;;;;;;4973738;28;20031;-70
2023/07/12 20:48:34;;;;;;;1.85;1.52;;;;;;;;;;4974287;28;20031;-70
2023/07/12 20:51:05;;;;;;;3.47;1.98;;;;;;;;;;4974247;28;20031;-70
2023/07/12 20:53:31;;;;;;;3.05;2.10;;;;;;;;;;4973946;28;20545;-70
2023/07/12 20:55:59;;;;;;;1.92;1.70;;;;;;;;;;4974179;28;20031;-70
2023/07/12 20:58:26;;;;;;;2.88;1.85;;;;;;;;;;4973915;28;20030;-69
2023/07/12 21:00:52;;;;;;;2.55;1.85;;;;;;;;;;4973620;28;20037;-69
2023/07/12 21:03:19;;;;;;;1.92;1.52;;;;;;;;;;4973905;28;20376;-70